Time;durP1;ratioP1;P1;durP2;ratioP2;P2;SDS_P1;SDS_P2;PMS_P1;PMS_P2;Temp;Humidity;BMP_temperature;BMP_pressure;BME280_temperature;BME280_humidity;BME280_pressure;Samples;Min_cycle;Max_cycle;Signal;HPM_P1;HPM_P2
2023/07/03 00:00:18;;;;;;;21.73;11.85;;;;;;;14.18;100.00;95628.44;1047647;28;20028;-74
2023/07/03 00:00:48;;;;;;;20.75;11.98;;;;;;;14.12;100.00;95622.47;1047653;28;20032;-74
2023/07/03 00:01:19;;;;;;;24.08;12.43;;;;;;;14.15;100.00;95626.38;1046347;28;20048;-74
2023/07/03 00:01:49;;;;;;;22.63;13.10;;;;;;;14.12;100.00;95627.75;1047231;28;20108;-74
2023/07/03 00:02:20;;;;;;;20.02;12.52;;;;;;;14.14;100.00;95620.31;1047224;28;20051;-74
2023/07/03 00:02:52;;;;;;;22.45;13.20;;;;;;;14.16;100.00;95622.69;1047180;28;20572;-75
2023/07/03 00:03:22;;;;;;;21.05;12.55;;;;;;;14.14;100.00;95630.09;1047409;28;20051;-74
2023/07/03 00:03:53;;;;;;;20.48;12.10;;;;;;;14.13;100.00;95628.53;1047581;28;20044;-75
2023/07/03 00:04:24;;;;;;;22.45;12.13;;;;;;;14.13;100.00;95628.53;1047402;28;20059;-74
2023/07/03 00:04:55;;;;;;;21.98;12.95;;;;;;;14.12;100.00;95633.03;1050825;28;20135;-74
2023/07/03 00:05:25;;;;;;;22.98;12.13;;;;;;;14.11;100.00;95634.06;1051640;28;20043;-75
2023/07/03 00:05:56;;;;;;;21.80;12.77;;;;;;;14.11;100.00;95634.06;1051182;28;20051;-74
2023/07/03 00:06:26;;;;;;;24.17;12.40;;;;;;;14.11;100.00;95631.44;1047287;28;20045;-74
2023/07/03 00:06:57;;;;;;;20.27;12.32;;;;;;;14.10;100.00;95637.00;1047269;28;20063;-74
2023/07/03 00:07:27;;;;;;;16.92;10.95;;;;;;;14.07;100.00;95633.09;1047003;28;20149;-74
2023/07/03 00:07:58;;;;;;;18.50;11.52;;;;;;;14.04;100.00;95636.28;1047458;28;20358;-75
2023/07/03 00:08:28;;;;;;;20.65;12.48;;;;;;;14.02;100.00;95633.19;1047575;28;20036;-74
2023/07/03 00:08:59;;;;;;;25.40;12.98;;;;;;;14.02;100.00;95641.09;1047631;28;20381;-74
2023/07/03 00:09:29;;;;;;;19.52;13.18;;;;;;;13.97;100.00;95629.81;1042962;28;20079;-75
2023/07/03 00:10:00;;;;;;;24.02;12.05;;;;;;;13.99;100.00;95638.25;1043103;28;20021;-75
2023/07/03 00:10:30;;;;;;;24.05;12.85;;;;;;;14.00;100.00;95637.16;1039000;28;20022;-74
2023/07/03 00:11:01;;;;;;;20.52;12.40;;;;;;;13.98;100.00;95628.75;1038693;28;20036;-74
2023/07/03 00:11:32;;;;;;;18.65;12.23;;;;;;;13.95;100.00;95638.03;1046950;28;20024;-75
2023/07/03 00:12:03;;;;;;;22.38;12.65;;;;;;;13.95;100.00;95635.41;1047224;28;20025;-74
2023/07/03 00:12:33;;;;;;;18.95;12.57;;;;;;;13.93;100.00;95634.09;1047649;28;20016;-75
2023/07/03 00:13:04;;;;;;;23.23;11.98;;;;;;;13.90;100.00;95641.50;1047451;28;20059;-75
2023/07/03 00:13:34;;;;;;;21.75;12.60;;;;;;;13.89;100.00;95634.69;1047227;28;20052;-74
2023/07/03 00:14:05;;;;;;;21.52;12.52;;;;;;;13.90;100.00;95640.72;1047255;28;20036;-75
2023/07/03 00:14:36;;;;;;;23.42;13.05;;;;;;;13.85;100.00;95638.97;1047208;28;20398;-75
2023/07/03 00:15:07;;;;;;;21.77;11.85;;;;;;;13.83;100.00;95635.81;1047190;28;20023;-75
2023/07/03 00:15:38;;;;;;;21.13;12.48;;;;;;;13.75;100.00;95628.56;1047538;28;20044;-75
2023/07/03 00:16:08;;;;;;;24.40;12.52;;;;;;;13.80;100.00;95633.75;1047336;28;20039;-75
2023/07/03 00:16:39;;;;;;;22.75;12.73;;;;;;;13.80;100.00;95635.59;1047654;28;20020;-75
2023/07/03 00:17:09;;;;;;;18.95;11.18;;;;;;;13.80;100.00;95633.75;1047583;28;20032;-75
2023/07/03 00:17:40;;;;;;;19.73;12.27;;;;;;;13.77;100.00;95642.22;1047546;28;20502;-74
2023/07/03 00:18:10;;;;;;;24.25;12.38;;;;;;;13.77;100.00;95641.44;1046975;28;20016;-75
2023/07/03 00:18:40;;;;;;;23.48;13.02;;;;;;;13.79;100.00;95639.31;1050149;28;20108;-75
2023/07/03 00:19:13;;;;;;;22.27;12.38;;;;;;;13.77;100.00;95636.16;1051434;28;20023;-74
2023/07/03 00:19:43;;;;;;;20.00;11.95;;;;;;;13.75;100.00;95636.47;1047587;28;20362;-75
2023/07/03 00:20:14;;;;;;;25.45;11.68;;;;;;;13.73;100.00;95635.94;1049181;28;20066;-75
2023/07/03 00:20:45;;;;;;;23.42;12.43;;;;;;;13.73;100.00;95638.59;1043056;28;20021;-75
2023/07/03 00:21:16;;;;;;;20.73;11.80;;;;;;;13.74;100.00;95634.09;1042348;28;20013;-74
2023/07/03 00:21:48;;;;;;;23.17;12.43;;;;;;;13.75;100.00;95627.75;1043264;28;20029;-74
2023/07/03 00:22:18;;;;;;;21.42;11.98;;;;;;;13.76;100.00;95638.03;1045752;28;20075;-74
2023/07/03 00:22:51;;;;;;;21.58;12.55;;;;;;;13.77;100.00;95626.41;1051319;28;20122;-75
2023/07/03 00:23:22;;;;;;;19.83;11.68;;;;;;;13.77;100.00;95630.88;1047125;28;20107;-74
2023/07/03 00:23:52;;;;;;;20.55;12.00;;;;;;;13.70;100.00;95615.44;1039084;28;20029;-74
2023/07/03 00:24:23;;;;;;;20.35;12.30;;;;;;;13.70;100.00;95630.47;1039178;28;20030;-74
2023/07/03 00:24:53;;;;;;;19.83;12.50;;;;;;;13.73;100.00;95635.16;1043240;28;20533;-72
2023/07/03 00:25:24;;;;;;;27.00;12.77;;;;;;;13.72;100.00;95628.34;1047012;28;20029;-74
2023/07/03 00:25:54;;;;;;;20.88;11.77;;;;;;;13.73;100.00;95633.31;1047563;28;20063;-75
2023/07/03 00:26:25;;;;;;;20.30;11.68;;;;;;;13.72;100.00;95629.13;1047299;28;20036;-74
2023/07/03 00:26:56;;;;;;;18.73;11.30;;;;;;;13.72;100.00;95636.25;1047044;28;20543;-74
2023/07/03 00:27:26;;;;;;;20.27;11.70;;;;;;;13.69;100.00;95640.22;1047136;28;20055;-75
2023/07/03 00:27:56;;;;;;;26.77;12.80;;;;;;;13.69;100.00;95629.69;1047204;28;20650;-76
2023/07/03 00:28:27;;;;;;;20.95;12.55;;;;;;;13.70;100.00;95631.25;1047032;28;20029;-75
2023/07/03 00:28:57;;;;;;;18.92;10.93;;;;;;;13.69;100.00;95637.59;1047440;28;20040;-75
2023/07/03 00:29:29;;;;;;;21.75;12.00;;;;;;;13.70;100.00;95636.53;1045971;28;20033;-74
2023/07/03 00:30:00;;;;;;;22.13;12.52;;;;;;;13.69;100.00;95637.59;1046937;28;20020;-74
2023/07/03 00:30:30;;;;;;;19.00;11.18;;;;;;;13.70;100.00;95636.53;1046971;28;20035;-74
2023/07/03 00:31:01;;;;;;;24.52;12.80;;;;;;;13.71;100.00;95635.44;1046796;28;20036;-74
2023/07/03 00:31:31;;;;;;;17.75;11.77;;;;;;;13.71;100.00;95632.81;1046892;28;20032;-74
2023/07/03 00:32:02;;;;;;;20.40;13.25;;;;;;;13.79;100.00;95628.75;1047285;28;20052;-75
2023/07/03 00:32:32;;;;;;;19.60;11.98;;;;;;;13.80;100.00;95633.75;1047455;28;20534;-75
2023/07/03 00:33:03;;;;;;;23.35;12.35;;;;;;;13.78;100.00;95629.81;1042921;28;20017;-75
2023/07/03 00:33:33;;;;;;;20.83;11.90;;;;;;;13.78;100.00;95627.19;1042993;28;20071;-75
2023/07/03 00:34:04;;;;;;;19.98;11.95;;;;;;;13.77;100.00;95636.94;1042801;28;20517;-75
2023/07/03 00:34:34;;;;;;;24.10;12.10;;;;;;;13.78;100.00;95632.44;1043086;28;20025;-75
2023/07/03 00:35:06;;;;;;;19.65;11.50;;;;;;;13.79;100.00;95637.47;1051255;28;20020;-75
2023/07/03 00:35:37;;;;;;;22.85;12.73;;;;;;;13.79;100.00;95634.81;1050947;28;20023;-75
2023/07/03 00:36:09;;;;;;;22.10;11.73;;;;;;;13.82;100.00;95639.53;1046995;28;20032;-75
2023/07/03 00:36:40;;;;;;;25.05;12.82;;;;;;;13.82;100.00;95634.25;1046974;28;20050;-74
2023/07/03 00:37:10;;;;;;;23.67;11.85;;;;;;;13.83;100.00;95635.03;1047083;28;20485;-74
2023/07/03 00:37:41;;;;;;;23.55;12.32;;;;;;;13.84;100.00;95632.09;1047038;28;20025;-74
2023/07/03 00:38:11;;;;;;;20.23;11.50;;;;;;;13.87;100.00;95636.03;1047533;28;20035;-75
2023/07/03 00:38:42;;;;;;;20.25;12.23;;;;;;;13.85;100.00;95633.69;1047211;28;20035;-75
2023/07/03 00:39:14;;;;;;;24.17;13.00;;;;;;;13.89;100.00;95634.69;1047411;28;20024;-75
2023/07/03 00:39:45;;;;;;;18.45;11.20;;;;;;;13.78;100.00;95612.16;1047112;28;20082;-74
2023/07/03 00:40:15;;;;;;;21.75;11.80;;;;;;;13.91;100.00;95629.88;1047268;28;20029;-75
2023/07/03 00:40:46;;;;;;;19.40;11.85;;;;;;;13.97;100.00;95630.59;1046815;28;20610;-75
2023/07/03 00:41:16;;;;;;;19.73;12.25;;;;;;;13.99;100.00;95638.25;1046541;28;20067;-75
2023/07/03 00:41:47;;;;;;;22.20;12.15;;;;;;;14.01;100.00;95630.81;1047373;28;20040;-75
2023/07/03 00:42:17;;;;;;;21.80;11.65;;;;;;;14.04;100.00;95630.25;1045655;28;20028;-75
2023/07/03 00:42:51;;;;;;;20.17;11.75;;;;;;;14.10;100.00;95637.00;1046830;28;20660;-74
2023/07/03 00:43:22;;;;;;;22.15;11.77;;;;;;;14.11;100.00;95634.06;1047137;28;20551;-76
2023/07/03 00:43:53;;;;;;;20.05;11.55;;;;;;;14.10;100.00;95629.09;1046704;28;20119;-75
2023/07/03 00:44:23;;;;;;;22.45;12.32;;;;;;;14.15;100.00;95636.91;1047749;28;20021;-75
2023/07/03 00:44:54;;;;;;;20.80;12.07;;;;;;;14.17;100.00;95634.00;1047069;28;20016;-75
2023/07/03 00:45:24;;;;;;;20.63;11.90;;;;;;;14.19;100.00;95631.88;1047060;28;20021;-75
2023/07/03 00:45:55;;;;;;;19.25;11.05;;;;;;;14.21;100.00;95635.78;1043793;28;20096;-75
2023/07/03 00:46:25;;;;;;;20.83;11.85;;;;;;;14.24;100.00;95632.56;1047062;28;20558;-75
2023/07/03 00:46:56;;;;;;;21.60;11.55;;;;;;;14.10;100.00;95605.34;1047417;28;20036;-75
2023/07/03 00:47:26;;;;;;;18.63;12.23;;;;;;;14.27;100.00;95634.63;1046893;28;20032;-75
2023/07/03 00:47:57;;;;;;;25.67;13.25;;;;;;;14.30;100.00;95633.28;1038961;28;20466;-75
2023/07/03 00:48:27;;;;;;;20.17;11.82;;;;;;;14.32;100.00;95631.94;1034888;28;20018;-75
2023/07/03 00:48:58;;;;;;;20.38;12.05;;;;;;;14.35;100.00;95630.53;1038883;28;20071;-75
2023/07/03 00:49:29;;;;;;;20.92;12.05;;;;;;;14.37;100.00;95631.03;1039100;28;20029;-75
2023/07/03 00:49:59;;;;;;;19.10;11.38;;;;;;;14.37;100.00;95629.19;1039046;28;20100;-76
2023/07/03 00:50:30;;;;;;;50.05;13.38;;;;;;;14.36;100.00;95627.63;1039187;28;20488;-76
2023/07/03 00:51:00;;;;;;;38.85;10.65;;;;;;;14.39;100.00;95627.06;1038648;28;20018;-74
2023/07/03 00:51:31;;;;;;;110.30;11.85;;;;;;;14.39;100.00;95627.06;1042749;28;20055;-75
2023/07/03 00:52:02;;;;;;;1023.33;163.05;;;;;;;14.41;100.00;95625.97;1043047;28;20483;-75
2023/07/03 00:52:33;;;;;;;47.83;14.40;;;;;;;14.41;100.00;95618.06;1043114;28;20581;-75
2023/07/03 00:53:04;;;;;;;30.85;11.93;;;;;;;14.42;100.00;95617.78;1047091;28;20016;-75
2023/07/03 00:53:34;;;;;;;22.98;12.43;;;;;;;14.44;100.00;95614.84;1047374;28;20031;-75
2023/07/03 00:54:05;;;;;;;23.33;12.40;;;;;;;14.44;100.00;95623.53;1051233;28;20098;-75
2023/07/03 00:54:35;;;;;;;22.60;12.20;;;;;;;14.44;100.00;95623.53;1051332;28;20197;-75
2023/07/03 00:55:06;;;;;;;20.60;11.93;;;;;;;14.42;100.00;95620.41;1051227;28;20028;-75
2023/07/03 00:55:37;;;;;;;18.38;11.60;;;;;;;14.40;100.00;95622.56;1047482;28;20123;-75
2023/07/03 00:56:07;;;;;;;20.70;12.18;;;;;;;14.41;100.00;95618.84;1047335;28;20078;-75
2023/07/03 00:56:38;;;;;;;20.58;11.45;;;;;;;14.41;100.00;95623.34;1047217;28;20020;-74
2023/07/03 00:57:12;;;;;;;18.35;11.20;;;;;;;14.43;100.00;95626.47;1047168;28;20024;-75
2023/07/03 00:57:43;;;;;;;20.00;11.48;;;;;;;14.41;100.00;95628.63;1046353;28;20024;-75
2023/07/03 00:58:13;;;;;;;18.42;11.23;;;;;;;14.38;100.00;95628.13;1047466;28;20056;-75
2023/07/03 00:58:44;;;;;;;20.15;11.85;;;;;;;14.27;100.00;95610.09;1051296;28;20573;-75
2023/07/03 00:59:14;;;;;;;35.00;13.40;;;;;;;14.39;100.00;95627.06;1051174;28;20035;-75
2023/07/03 00:59:45;;;;;;;20.67;12.23;;;;;;;14.37;100.00;95629.19;1047359;28;20059;-75
2023/07/03 01:00:15;;;;;;;24.25;12.18;;;;;;;14.37;100.00;95629.19;1043021;28;20043;-75
2023/07/03 01:00:53;;;;;;;20.42;11.25;;;;;;;14.20;100.00;95607.81;1043055;28;20032;-75
2023/07/03 01:01:36;;;;;;;28.77;13.10;;;;;;;14.25;100.00;95618.31;1042419;28;20055;-74
2023/07/03 01:02:20;;;;;;;25.10;12.10;;;;;;;14.33;100.00;95633.47;1048583;28;20608;-75
2023/07/03 01:03:07;;;;;;;30.27;12.20;;;;;;;14.29;100.00;95637.00;1049731;28;20104;-75
2023/07/03 01:03:39;;;;;;;20.08;11.57;;;;;;;14.26;100.00;95638.34;1051312;28;20016;-74
2023/07/03 01:04:19;;;;;;;25.85;11.68;;;;;;;14.24;100.00;95631.78;1055571;28;20031;-74
2023/07/03 01:04:57;;;;;;;20.42;11.63;;;;;;;14.23;100.00;95635.50;1049604;28;20111;-75
2023/07/03 01:05:30;;;;;;;19.17;10.30;;;;;;;14.22;100.00;95637.38;1048646;28;20043;-74
2023/07/03 01:06:00;;;;;;;18.33;11.60;;;;;;;14.10;100.00;95615.91;1042050;28;20021;-75
2023/07/03 01:06:34;;;;;;;23.70;12.20;;;;;;;14.17;100.00;95632.16;1036513;28;20022;-75
2023/07/03 01:07:07;;;;;;;19.88;11.80;;;;;;;14.21;100.00;95630.50;1043028;28;20528;-75
2023/07/03 01:07:38;;;;;;;22.73;11.70;;;;;;;14.20;100.00;95628.16;1038662;28;20055;-75
2023/07/03 01:08:09;;;;;;;19.48;11.68;;;;;;;14.14;100.00;95624.81;1039601;28;20576;-76
2023/07/03 01:08:40;;;;;;;20.77;12.43;;;;;;;14.17;100.00;95629.50;1034843;28;20044;-74
2023/07/03 01:09:11;;;;;;;23.73;13.13;;;;;;;14.15;100.00;95631.66;1035190;28;20029;-75
2023/07/03 01:09:55;;;;;;;22.17;12.25;;;;;;;14.13;100.00;95624.03;1035979;28;20045;-75
2023/07/03 01:10:26;;;;;;;22.23;12.52;;;;;;;14.11;100.00;95625.38;1043308;28;20052;-75
2023/07/03 01:10:56;;;;;;;19.23;11.68;;;;;;;14.11;100.00;95626.16;1042813;28;20078;-74
2023/07/03 01:11:27;;;;;;;19.30;11.82;;;;;;;14.08;100.00;95623.31;1044269;28;20063;-74
2023/07/03 01:11:57;;;;;;;19.10;10.45;;;;;;;14.08;100.00;95620.66;1046996;28;20024;-75
2023/07/03 01:12:29;;;;;;;24.02;12.80;;;;;;;14.08;100.00;95624.13;1047133;28;20020;-75
2023/07/03 01:13:04;;;;;;;20.23;12.23;;;;;;;14.06;100.00;95618.34;1046895;28;20656;-74
2023/07/03 01:13:34;;;;;;;18.45;11.65;;;;;;;14.04;100.00;95628.38;1047096;28;20375;-74
2023/07/03 01:14:05;;;;;;;28.00;12.73;;;;;;;14.03;100.00;95624.19;1051175;28;20009;-74
2023/07/03 01:14:35;;;;;;;19.52;10.88;;;;;;;14.04;100.00;95624.97;1046964;28;20025;-75
2023/07/03 01:15:08;;;;;;;20.38;11.32;;;;;;;14.00;100.00;95624.75;1039134;28;20109;-75
2023/07/03 01:15:40;;;;;;;20.92;11.98;;;;;;;14.01;100.00;95625.53;1042424;28;20559;-75
2023/07/03 01:16:10;;;;;;;19.83;11.48;;;;;;;14.01;100.00;95630.81;1042909;28;20035;-74
2023/07/03 01:16:41;;;;;;;21.70;11.63;;;;;;;13.98;100.00;95631.38;1043565;28;20468;-75
2023/07/03 01:17:11;;;;;;;19.48;10.93;;;;;;;13.98;100.00;95626.09;1047058;28;20020;-75
2023/07/03 01:17:42;;;;;;;23.00;11.63;;;;;;;13.96;100.00;95628.25;1046945;28;20013;-75
2023/07/03 01:18:12;;;;;;;19.65;10.88;;;;;;;13.97;100.00;95635.88;1042871;28;20087;-75
2023/07/03 01:18:43;;;;;;;22.00;11.25;;;;;;;13.97;100.00;95630.59;1046146;28;20013;-75
2023/07/03 01:19:18;;;;;;;21.35;12.00;;;;;;;13.83;100.00;95614.72;1043046;28;20429;-75
2023/07/03 01:19:49;;;;;;;22.05;10.88;;;;;;;13.95;100.00;95629.31;1047059;28;20086;-74
2023/07/03 01:20:20;;;;;;;23.77;12.35;;;;;;;13.99;100.00;95630.31;1047619;28;20058;-75
2023/07/03 01:20:55;;;;;;;22.13;12.65;;;;;;;14.03;100.00;95633.97;1047087;28;20067;-75
2023/07/03 01:21:31;;;;;;;21.73;11.43;;;;;;;14.03;100.00;95634.72;1046070;28;20028;-75
2023/07/03 01:22:24;;;;;;;22.38;13.00;;;;;;;14.06;100.00;95641.31;1049526;28;20043;-75
2023/07/03 01:23:16;;;;;;;19.88;11.02;;;;;;;14.08;100.00;95633.88;1040462;28;20041;-75
2023/07/03 01:24:00;;;;;;;19.20;11.07;;;;;;;14.11;100.00;95633.28;1047632;28;20085;-75
2023/07/03 01:24:48;;;;;;;24.23;11.68;;;;;;;14.13;100.00;95636.44;1047320;28;20108;-74
2023/07/03 01:25:19;;;;;;;19.38;11.63;;;;;;;14.13;100.00;95634.59;1051104;28;20019;-75
2023/07/03 01:25:50;;;;;;;20.33;11.32;;;;;;;14.17;100.00;95634.78;1047126;28;20020;-75
2023/07/03 01:26:21;;;;;;;21.98;12.23;;;;;;;14.18;100.00;95638.22;1047123;28;20486;-75
2023/07/03 01:26:51;;;;;;;19.42;10.70;;;;;;;14.19;100.00;95631.88;1043199;28;20036;-75
2023/07/03 01:27:25;;;;;;;20.88;11.30;;;;;;;14.19;100.00;95637.94;1042985;28;20026;-75
2023/07/03 01:27:56;;;;;;;18.85;11.32;;;;;;;14.23;100.00;95632.88;1043049;28;20744;-74
2023/07/03 01:28:26;;;;;;;23.00;11.60;;;;;;;14.25;100.00;95635.97;1044237;28;20154;-74
2023/07/03 01:28:58;;;;;;;21.63;11.95;;;;;;;14.28;100.00;95636.19;1051046;28;20387;-75
2023/07/03 01:29:28;;;;;;;21.90;12.27;;;;;;;14.32;100.00;95636.44;1045092;28;20111;-74
2023/07/03 01:29:59;;;;;;;21.77;11.73;;;;;;;14.32;100.00;95636.44;1042747;28;20070;-75
2023/07/03 01:30:29;;;;;;;20.33;11.35;;;;;;;14.29;100.00;95624.56;1042758;28;20029;-75
2023/07/03 01:31:00;;;;;;;21.15;11.95;;;;;;;14.37;100.00;95636.31;1042454;28;20646;-74
2023/07/03 01:31:30;;;;;;;19.02;12.05;;;;;;;14.29;100.00;95621.16;1034372;28;20034;-74
2023/07/03 01:32:03;;;;;;;21.02;12.23;;;;;;;14.41;100.00;95633.91;1038749;28;20021;-75
2023/07/03 01:32:33;;;;;;;19.52;10.98;;;;;;;14.43;100.00;95634.41;1038466;28;20490;-74
2023/07/03 01:33:04;;;;;;;19.00;11.80;;;;;;;14.44;100.00;95635.97;1030947;28;20034;-75
2023/07/03 01:33:34;;;;;;;23.05;12.20;;;;;;;14.46;100.00;95631.97;1035197;28;20026;-74
2023/07/03 01:34:05;;;;;;;23.58;12.18;;;;;;;14.49;100.00;95630.59;1038734;28;20078;-74
2023/07/03 01:34:36;;;;;;;19.92;11.70;;;;;;;14.48;100.00;95626.38;1039066;28;20528;-75
2023/07/03 01:35:08;;;;;;;21.60;12.05;;;;;;;14.53;100.00;95632.41;1042830;28;20024;-75
2023/07/03 01:35:39;;;;;;;20.05;11.38;;;;;;;14.56;100.00;95631.03;1045547;28;20036;-75
2023/07/03 01:36:11;;;;;;;20.20;12.10;;;;;;;14.49;100.00;95620.81;1045957;28;20020;-75
2023/07/03 01:36:42;;;;;;;22.73;11.95;;;;;;;14.60;100.00;95627.53;1042596;28;20016;-74
2023/07/03 01:37:13;;;;;;;16.33;11.02;;;;;;;14.62;100.00;95635.16;1043784;28;20041;-74
2023/07/03 01:37:46;;;;;;;21.13;12.60;;;;;;;14.64;100.00;95633.00;1042773;28;20029;-75
2023/07/03 01:38:17;;;;;;;20.92;11.70;;;;;;;14.63;100.00;95636.72;1039574;28;20024;-75
2023/07/03 01:38:47;;;;;;;19.50;11.05;;;;;;;14.67;100.00;95639.56;1041718;28;20040;-75
2023/07/03 01:39:18;;;;;;;20.60;10.93;;;;;;;14.68;100.00;95633.19;1034919;28;20022;-74
2023/07/03 01:39:49;;;;;;;21.05;11.63;;;;;;;14.70;100.00;95636.34;1035210;28;20483;-74
2023/07/03 01:40:21;;;;;;;19.58;10.65;;;;;;;14.71;100.00;95641.31;1038602;28;20513;-74
2023/07/03 01:40:52;;;;;;;20.63;11.07;;;;;;;14.70;100.00;95637.13;1034886;28;20034;-74
2023/07/03 01:41:23;;;;;;;18.27;10.65;;;;;;;14.74;100.00;95638.09;1040731;28;20043;-75
2023/07/03 01:41:54;;;;;;;21.10;10.90;;;;;;;14.73;100.00;95636.56;1047216;28;20012;-75
2023/07/03 01:42:25;;;;;;;24.42;11.95;;;;;;;14.75;100.00;95633.59;1046939;28;20032;-74
2023/07/03 01:42:55;;;;;;;21.88;11.80;;;;;;;14.76;100.00;95637.84;1042449;28;20597;-74
2023/07/03 01:43:26;;;;;;;22.23;11.80;;;;;;;14.76;100.00;95643.13;1038368;28;20056;-74
2023/07/03 01:43:57;;;;;;;24.17;11.48;;;;;;;14.75;100.00;95636.25;1033796;28;20030;-75
2023/07/03 01:44:27;;;;;;;19.70;10.68;;;;;;;14.75;100.00;95637.03;1038870;28;20062;-75
2023/07/03 01:44:58;;;;;;;20.92;11.30;;;;;;;14.75;100.00;95637.03;1046855;28;20119;-75
2023/07/03 01:45:28;;;;;;;20.85;11.48;;;;;;;14.75;100.00;95639.66;1046684;28;20032;-74
2023/07/03 01:45:58;;;;;;;23.20;11.35;;;;;;;14.74;100.00;95638.09;1047117;28;20094;-75
2023/07/03 01:46:29;;;;;;;19.70;12.00;;;;;;;14.75;100.00;95633.59;1047231;28;20025;-75
2023/07/03 01:47:08;;;;;;;22.30;12.38;;;;;;;14.75;100.00;95639.66;1047128;28;20043;-75
2023/07/03 01:47:38;;;;;;;20.77;11.60;;;;;;;14.77;100.00;95637.53;1046657;28;20501;-75
2023/07/03 01:48:09;;;;;;;19.65;10.80;;;;;;;14.76;100.00;95638.59;1051017;28;20123;-75
2023/07/03 01:48:39;;;;;;;21.63;12.13;;;;;;;14.73;100.00;95631.25;1046718;28;20024;-74
2023/07/03 01:49:12;;;;;;;18.23;10.70;;;;;;;14.74;100.00;95642.59;1045021;28;20079;-74
2023/07/03 01:49:42;;;;;;;22.15;11.32;;;;;;;14.75;100.00;95642.31;1042307;28;20632;-75
2023/07/03 01:50:18;;;;;;;21.13;11.18;;;;;;;14.75;100.00;95644.94;1038954;28;20118;-74
2023/07/03 01:50:49;;;;;;;21.40;11.00;;;;;;;14.76;100.00;95641.25;1044292;28;20681;-75
2023/07/03 01:51:25;;;;;;;19.63;10.65;;;;;;;14.74;100.00;95638.09;1047882;28;20028;-74
2023/07/03 01:52:28;;;;;;;20.92;11.63;;;;;;;14.75;100.00;95637.03;1050989;28;20099;-75
2023/07/03 01:53:04;;;;;;;20.70;11.40;;;;;;;14.55;100.00;95595.13;1042738;28;20021;-74
2023/07/03 01:53:57;;;;;;;21.65;11.30;;;;;;;14.75;100.00;95631.75;1044145;28;20557;-74
2023/07/03 01:54:31;;;;;;;22.13;10.63;;;;;;;14.64;100.00;95606.59;1042386;28;20024;-74
2023/07/03 01:55:05;;;;;;;20.30;11.43;;;;;;;14.77;100.00;95631.47;1038630;28;20032;-74
2023/07/03 01:55:44;;;;;;;20.10;10.77;;;;;;;14.76;100.00;95627.25;1034644;28;20029;-74
2023/07/03 01:56:30;;;;;;;21.88;11.43;;;;;;;14.77;100.00;95631.47;1035008;28;20027;-75
2023/07/03 01:57:01;;;;;;;21.15;11.07;;;;;;;14.71;100.00;95628.13;1042559;28;20028;-74
2023/07/03 01:57:34;;;;;;;20.63;11.30;;;;;;;14.75;100.00;95633.59;1041879;28;20029;-75
2023/07/03 01:58:32;;;;;;;20.98;11.10;;;;;;;14.73;100.00;95635.78;1042666;28;20375;-74
2023/07/03 01:59:05;;;;;;;23.55;12.13;;;;;;;14.72;100.00;95636.81;1046841;28;20028;-74
2023/07/03 01:59:36;;;;;;;19.33;10.50;;;;;;;14.70;100.00;95637.13;1050856;28;20390;-75
2023/07/03 02:00:09;;;;;;;21.67;11.63;;;;;;;14.69;100.00;95638.22;1050875;28;20087;-75
2023/07/03 02:00:51;;;;;;;19.60;10.82;;;;;;;14.68;100.00;95633.19;1046766;28;20047;-74
2023/07/03 02:02:05;;;;;;;20.00;10.70;;;;;;;14.67;100.00;95635.06;1046020;28;20032;-75
2023/07/03 02:02:36;;;;;;;18.13;10.02;;;;;;;14.54;100.00;95617.34;1041181;28;20113;-75
2023/07/03 02:03:13;;;;;;;21.58;10.65;;;;;;;14.65;100.00;95634.56;1042712;28;20652;-74
2023/07/03 02:03:48;;;;;;;22.65;11.77;;;;;;;14.63;100.00;95631.44;1042645;28;20456;-74
2023/07/03 02:04:41;;;;;;;23.83;11.65;;;;;;;14.63;100.00;95631.44;1043082;28;20032;-72
2023/07/03 02:05:22;;;;;;;23.55;10.70;;;;;;;14.44;100.00;95612.97;1046577;28;20567;-74
2023/07/03 02:05:53;;;;;;;19.77;10.90;;;;;;;14.57;100.00;95632.59;1039526;28;20499;-74
2023/07/03 02:06:26;;;;;;;22.45;10.80;;;;;;;14.55;100.00;95635.53;1042408;28;20845;-75
2023/07/03 02:06:56;;;;;;;25.88;11.75;;;;;;;14.43;100.00;95610.63;1041114;28;20025;-74
2023/07/03 02:07:27;;;;;;;20.50;11.27;;;;;;;14.54;100.00;95627.91;1047681;28;20037;-74
2023/07/03 02:07:59;;;;;;;24.35;11.43;;;;;;;14.53;100.00;95634.25;1050933;28;20031;-75
2023/07/03 02:08:29;;;;;;;19.55;10.77;;;;;;;14.49;100.00;95626.09;1047091;28;20397;-75
2023/07/03 02:09:00;;;;;;;19.92;11.32;;;;;;;14.51;100.00;95633.75;1046320;28;20013;-75
2023/07/03 02:09:31;;;;;;;28.95;11.82;;;;;;;14.51;100.00;95631.91;1044025;28;20020;-74
2023/07/03 02:10:02;;;;;;;20.80;11.43;;;;;;;14.48;100.00;95629.03;1042755;28;20112;-74
2023/07/03 02:10:33;;;;;;;21.45;11.30;;;;;;;14.48;100.00;95634.31;1043021;28;20115;-75
2023/07/03 02:11:04;;;;;;;19.95;10.80;;;;;;;14.50;100.00;95634.81;1041948;28;20028;-74
2023/07/03 02:11:34;;;;;;;18.88;11.68;;;;;;;14.48;100.00;95632.44;1038883;28;20030;-74
2023/07/03 02:12:09;;;;;;;20.58;11.50;;;;;;;14.46;100.00;95639.09;1042851;28;20100;-74
2023/07/03 02:12:46;;;;;;;21.92;11.82;;;;;;;14.45;100.00;95637.50;1043343;28;20013;-74
2023/07/03 02:13:17;;;;;;;23.52;12.27;;;;;;;14.43;100.00;95631.75;1046800;28;20012;-74
2023/07/03 02:13:47;;;;;;;23.38;11.30;;;;;;;14.43;100.00;95632.53;1047131;28;20028;-75
2023/07/03 02:14:18;;;;;;;17.38;11.05;;;;;;;14.42;100.00;95638.09;1046842;28;20020;-75
2023/07/03 02:14:48;;;;;;;19.00;11.23;;;;;;;14.41;100.00;95631.25;1046601;28;20135;-74
2023/07/03 02:15:19;;;;;;;25.17;12.27;;;;;;;14.40;100.00;95633.13;1046886;28;20739;-74
2023/07/03 02:15:49;;;;;;;20.70;12.10;;;;;;;14.35;100.00;95628.72;1046887;28;20025;-75
2023/07/03 02:16:20;;;;;;;23.30;11.88;;;;;;;14.39;100.00;95637.63;1046996;28;20025;-74
2023/07/03 02:16:52;;;;;;;20.60;12.15;;;;;;;14.39;100.00;95642.88;1046832;28;20018;-75
2023/07/03 02:17:23;;;;;;;19.27;10.98;;;;;;;14.39;100.00;95631.56;1046814;28;20013;-74
2023/07/03 02:17:55;;;;;;;21.17;10.98;;;;;;;14.38;100.00;95637.88;1046700;28;20459;-75
2023/07/03 02:18:27;;;;;;;20.65;10.32;;;;;;;14.37;100.00;95631.81;1047652;28;20120;-75
2023/07/03 02:18:58;;;;;;;21.48;11.32;;;;;;;14.36;100.00;95643.47;1051192;28;20716;-74
2023/07/03 02:19:29;;;;;;;19.05;11.23;;;;;;;14.23;100.00;95617.03;1051277;28;20129;-75
2023/07/03 02:19:59;;;;;;;18.52;10.55;;;;;;;14.35;100.00;95635.81;1051252;28;20494;-74
2023/07/03 02:20:30;;;;;;;26.88;12.15;;;;;;;14.29;100.00;95632.50;1047045;28;20371;-75
2023/07/03 02:21:00;;;;;;;20.75;11.60;;;;;;;14.34;100.00;95640.31;1046585;28;20086;-74
2023/07/03 02:21:31;;;;;;;19.15;10.73;;;;;;;14.35;100.00;95636.63;1046829;28;20070;-74
2023/07/03 02:22:02;;;;;;;24.92;11.35;;;;;;;14.35;100.00;95636.63;1046861;28;20032;-74
2023/07/03 02:22:33;;;;;;;20.73;11.15;;;;;;;14.38;100.00;95633.41;1047439;28;20082;-74
2023/07/03 02:23:03;;;;;;;19.90;11.90;;;;;;;14.38;100.00;95629.97;1047016;28;20028;-75
2023/07/03 02:23:34;;;;;;;19.55;11.63;;;;;;;14.37;100.00;95626.53;1046136;28;20024;-74
2023/07/03 02:24:05;;;;;;;19.80;10.85;;;;;;;14.39;100.00;95632.34;1051708;28;20019;-75
2023/07/03 02:24:36;;;;;;;23.65;11.70;;;;;;;14.34;100.00;95618.41;1056023;28;20031;-74
2023/07/03 02:25:07;;;;;;;21.08;11.70;;;;;;;14.41;100.00;95628.63;1055368;28;20090;-75
2023/07/03 02:25:37;;;;;;;20.60;11.57;;;;;;;14.40;100.00;95630.47;1054932;28;20047;-74
2023/07/03 02:26:09;;;;;;;22.05;11.93;;;;;;;14.39;100.00;95632.34;1047312;28;20476;-74
2023/07/03 02:26:42;;;;;;;20.95;11.98;;;;;;;14.41;100.00;95628.63;1047534;28;20021;-74
2023/07/03 02:27:12;;;;;;;18.15;11.02;;;;;;;14.39;100.00;95628.91;1047486;28;20025;-74